Time;durP1;ratioP1;P1;durP2;ratioP2;P2;SDS_P1;SDS_P2;PMS_P1;PMS_P2;Temp;Humidity;BMP_temperature;BMP_pressure;BME280_temperature;BME280_humidity;BME280_pressure;Samples;Min_cycle;Max_cycle;Signal;HPM_P1;HPM_P2
2021/12/01 00:00:41;;;;;;;5.95;2.30;;;;;;;;;;4984069;28;24496;-59
2021/12/01 00:03:06;;;;;;;6.90;2.20;;;;;;;;;;4997385;28;24484;-58
2021/12/01 00:05:32;;;;;;;6.70;2.20;;;;;;;;;;4979843;28;24425;-60
2021/12/01 00:07:57;;;;;;;7.70;2.40;;;;;;;;;;4990461;28;24984;-59
2021/12/01 00:10:24;;;;;;;6.93;2.40;;;;;;;;;;4991690;28;24520;-60
2021/12/01 00:12:50;;;;;;;4.97;2.30;;;;;;;;;;4982876;28;25232;-59
2021/12/01 00:15:15;;;;;;;5.60;2.22;;;;;;;;;;4981674;28;24460;-59
2021/12/01 00:17:41;;;;;;;7.63;2.40;;;;;;;;;;4982254;28;24459;-59
2021/12/01 00:20:08;;;;;;;7.20;2.00;;;;;;;;;;4982132;28;24412;-59
2021/12/01 00:22:33;;;;;;;5.82;2.40;;;;;;;;;;4992285;28;24508;-59
2021/12/01 00:24:58;;;;;;;7.32;2.78;;;;;;;;;;4983513;28;24532;-59
2021/12/01 00:27:23;;;;;;;5.00;2.00;;;;;;;;;;4983839;28;24483;-59
2021/12/01 00:29:49;;;;;;;5.13;2.17;;;;;;;;;;4978106;28;25033;-59
2021/12/01 00:32:15;;;;;;;5.07;2.30;;;;;;;;;;4984887;28;24412;-59
2021/12/01 00:34:40;;;;;;;4.32;1.80;;;;;;;;;;4995523;28;24780;-59
2021/12/01 00:37:05;;;;;;;5.57;2.30;;;;;;;;;;4983595;28;24765;-59
2021/12/01 00:39:31;;;;;;;9.45;2.70;;;;;;;;;;4983346;28;24508;-60
2021/12/01 00:41:57;;;;;;;4.70;2.20;;;;;;;;;;4976597;28;24413;-60
2021/12/01 00:44:22;;;;;;;6.23;1.80;;;;;;;;;;4978548;28;24500;-58
2021/12/01 00:49:32;;;;;;;6.22;1.90;;;;;;;;;;4978414;28;24449;-59
2021/12/01 00:51:58;;;;;;;6.35;2.00;;;;;;;;;;4984311;28;24422;-59
2021/12/01 00:54:23;;;;;;;4.13;1.80;;;;;;;;;;4996407;28;24551;-59
2021/12/01 00:56:49;;;;;;;3.80;1.70;;;;;;;;;;4981210;28;24436;-59
2021/12/01 00:59:15;;;;;;;3.58;1.60;;;;;;;;;;4986273;28;24436;-59
2021/12/01 01:01:40;;;;;;;3.97;1.58;;;;;;;;;;5000895;28;24436;-59
2021/12/01 01:04:05;;;;;;;4.33;1.60;;;;;;;;;;4983361;28;24444;-59
2021/12/01 01:06:30;;;;;;;5.82;1.88;;;;;;;;;;4983877;28;25056;-59
2021/12/01 01:08:56;;;;;;;4.07;1.70;;;;;;;;;;4986783;28;24412;-59
2021/12/01 01:16:51;;;;;;;2.50;1.50;;;;;;;;;;4993419;28;24504;-59
2021/12/01 01:19:17;;;;;;;3.00;1.63;;;;;;;;;;4983273;28;24423;-59
2021/12/01 01:21:47;;;;;;;2.40;1.50;;;;;;;;;;4987487;28;24455;-59
2021/12/01 01:24:32;;;;;;;4.60;1.40;;;;;;;;;;4988100;28;24424;-59
2021/12/01 01:26:58;;;;;;;3.30;2.00;;;;;;;;;;4978652;28;24463;-59
2021/12/01 01:29:23;;;;;;;3.80;1.53;;;;;;;;;;5003183;28;24433;-59
2021/12/01 01:31:52;;;;;;;4.05;1.60;;;;;;;;;;4994976;28;25015;-59
2021/12/01 01:34:17;;;;;;;4.88;1.83;;;;;;;;;;4995939;28;24473;-59
2021/12/01 01:36:43;;;;;;;3.93;1.70;;;;;;;;;;4988818;28;24460;-59
2021/12/01 01:39:08;;;;;;;3.35;1.30;;;;;;;;;;4987373;28;24412;-59
2021/12/01 01:41:33;;;;;;;4.68;1.83;;;;;;;;;;4981518;28;24445;-59
2021/12/01 01:43:58;;;;;;;3.43;1.70;;;;;;;;;;4991544;28;24420;-59
2021/12/01 01:46:23;;;;;;;4.00;1.73;;;;;;;;;;4996932;28;24424;-60
2021/12/01 01:48:53;;;;;;;3.80;1.60;;;;;;;;;;4987383;28;24970;-59
2021/12/01 01:51:19;;;;;;;3.55;1.52;;;;;;;;;;4985151;28;24409;-59
2021/12/01 01:53:45;;;;;;;4.75;1.80;;;;;;;;;;4986960;28;24495;-59
2021/12/01 01:56:10;;;;;;;3.08;1.25;;;;;;;;;;4987190;28;24503;-59
2021/12/01 01:58:35;;;;;;;4.80;1.60;;;;;;;;;;4986564;28;24978;-59
2021/12/01 02:01:06;;;;;;;3.23;1.40;;;;;;;;;;4986955;28;24409;-59
2021/12/01 02:03:31;;;;;;;2.75;1.45;;;;;;;;;;4983066;28;24430;-59
2021/12/01 02:05:57;;;;;;;3.43;1.37;;;;;;;;;;4982546;28;24416;-59
2021/12/01 02:08:29;;;;;;;2.83;1.60;;;;;;;;;;4985590;28;24417;-59
2021/12/01 02:10:55;;;;;;;3.13;1.10;;;;;;;;;;4983700;28;24523;-59
2021/12/01 02:13:21;;;;;;;2.47;1.30;;;;;;;;;;4993923;28;24420;-59
2021/12/01 02:15:48;;;;;;;2.70;1.33;;;;;;;;;;4981818;28;24439;-59
2021/12/01 02:18:13;;;;;;;2.38;1.40;;;;;;;;;;4998285;28;24515;-59
2021/12/01 02:20:39;;;;;;;3.42;1.40;;;;;;;;;;4991128;28;24540;-59
2021/12/01 02:23:04;;;;;;;3.17;1.23;;;;;;;;;;4982936;28;24412;-60
2021/12/01 02:25:30;;;;;;;2.33;1.20;;;;;;;;;;4981999;28;24508;-59
2021/12/01 02:27:55;;;;;;;2.90;1.50;;;;;;;;;;4990084;28;25037;-59
2021/12/01 02:30:20;;;;;;;5.20;1.30;;;;;;;;;;4986691;28;24451;-59
2021/12/01 02:32:45;;;;;;;2.65;1.25;;;;;;;;;;4982551;28;24462;-59
2021/12/01 02:35:11;;;;;;;3.30;1.73;;;;;;;;;;4977018;28;24520;-59
2021/12/01 02:37:37;;;;;;;2.63;1.40;;;;;;;;;;4984117;28;24776;-59
2021/12/01 02:40:02;;;;;;;3.70;1.40;;;;;;;;;;4986476;28;24508;-59
2021/12/01 02:42:28;;;;;;;3.30;1.42;;;;;;;;;;4984990;28;24563;-60
2021/12/01 02:44:54;;;;;;;2.67;1.30;;;;;;;;;;4990866;28;24555;-59
2021/12/01 02:47:21;;;;;;;3.80;1.50;;;;;;;;;;4979874;28;24423;-60
2021/12/01 02:49:46;;;;;;;1.83;1.10;;;;;;;;;;4978322;28;25010;-59
2021/12/01 02:52:12;;;;;;;3.10;1.40;;;;;;;;;;4985248;28;24413;-59
2021/12/01 02:54:37;;;;;;;3.58;1.30;;;;;;;;;;4980870;28;24440;-59
2021/12/01 02:57:02;;;;;;;2.97;1.20;;;;;;;;;;4984802;28;25121;-59
2021/12/01 02:59:27;;;;;;;3.67;1.60;;;;;;;;;;4987865;28;24417;-59
2021/12/01 03:01:53;;;;;;;4.20;1.40;;;;;;;;;;4976304;28;24409;-59
2021/12/01 03:04:19;;;;;;;3.60;1.50;;;;;;;;;;4962349;28;24385;-59
2021/12/01 03:06:45;;;;;;;4.63;1.70;;;;;;;;;;4979398;28;24952;-59
2021/12/01 03:09:12;;;;;;;3.40;1.50;;;;;;;;;;4985917;28;25132;-60
2021/12/01 03:11:37;;;;;;;2.72;1.50;;;;;;;;;;4979825;28;25005;-59
2021/12/01 03:14:06;;;;;;;4.03;1.60;;;;;;;;;;4983314;28;24457;-59
2021/12/01 03:16:34;;;;;;;4.07;2.00;;;;;;;;;;4994742;28;24479;-59
2021/12/01 03:18:59;;;;;;;3.83;1.50;;;;;;;;;;4991025;28;24488;-59
2021/12/01 03:21:24;;;;;;;2.85;1.50;;;;;;;;;;4984858;28;24413;-59
2021/12/01 03:23:49;;;;;;;3.30;1.50;;;;;;;;;;4984262;28;24948;-60
2021/12/01 03:26:14;;;;;;;3.23;1.33;;;;;;;;;;4990711;28;24440;-59
2021/12/01 03:28:40;;;;;;;3.70;1.60;;;;;;;;;;4985150;28;25243;-59
2021/12/01 03:31:05;;;;;;;1.92;1.60;;;;;;;;;;4982342;28;25029;-59
2021/12/01 03:33:30;;;;;;;3.22;1.50;;;;;;;;;;4982419;28;24772;-59
2021/12/01 03:35:55;;;;;;;2.20;1.70;;;;;;;;;;4982913;28;24420;-59
2021/12/01 03:38:21;;;;;;;2.60;1.73;;;;;;;;;;4995905;28;24423;-60
2021/12/01 03:40:48;;;;;;;2.95;1.65;;;;;;;;;;4978626;28;24413;-59
2021/12/01 03:43:13;;;;;;;2.78;1.60;;;;;;;;;;4978940;28;24475;-61
2021/12/01 03:45:39;;;;;;;2.85;1.60;;;;;;;;;;4983075;28;24413;-61
2021/12/01 03:48:04;;;;;;;2.43;1.73;;;;;;;;;;4992159;28;24815;-61
2021/12/01 03:50:29;;;;;;;1.87;1.60;;;;;;;;;;4987526;28;24508;-61
2021/12/01 03:52:55;;;;;;;4.60;1.80;;;;;;;;;;4982544;28;24772;-60
2021/12/01 03:55:20;;;;;;;2.20;1.73;;;;;;;;;;4977761;28;25408;-61
2021/12/01 03:57:46;;;;;;;2.70;1.60;;;;;;;;;;4985768;28;24440;-60
2021/12/01 04:00:12;;;;;;;2.60;1.77;;;;;;;;;;4991524;28;24424;-60
2021/12/01 04:02:38;;;;;;;1.95;1.60;;;;;;;;;;4999223;28;24427;-60
2021/12/01 04:05:03;;;;;;;2.38;1.90;;;;;;;;;;4986062;28;24417;-61
2021/12/01 04:07:28;;;;;;;4.80;2.47;;;;;;;;;;4990976;28;24444;-61
2021/12/01 04:09:54;;;;;;;2.80;1.80;;;;;;;;;;4987968;28;25015;-60
2021/12/01 04:12:19;;;;;;;3.80;1.96;;;;;;;;;;4993661;28;24942;-60
2021/12/01 04:14:44;;;;;;;3.00;1.70;;;;;;;;;;4981994;28;24506;-60
2021/12/01 04:17:10;;;;;;;3.88;1.60;;;;;;;;;;4992466;28;25139;-60
2021/12/01 04:19:35;;;;;;;2.07;1.90;;;;;;;;;;4986558;28;24448;-61
2021/12/01 04:22:00;;;;;;;4.30;2.20;;;;;;;;;;4988155;28;25206;-61
2021/12/01 04:24:25;;;;;;;3.30;2.30;;;;;;;;;;4983899;28;24413;-61
2021/12/01 04:26:51;;;;;;;3.33;2.20;;;;;;;;;;4981792;28;24409;-61
2021/12/01 04:29:16;;;;;;;2.97;2.00;;;;;;;;;;4979810;28;24424;-60
2021/12/01 04:31:42;;;;;;;2.40;2.00;;;;;;;;;;4983748;28;24417;-61
2021/12/01 04:34:08;;;;;;;2.80;2.30;;;;;;;;;;4982707;28;24448;-61
2021/12/01 04:36:35;;;;;;;3.07;2.03;;;;;;;;;;4981649;28;24947;-60
2021/12/01 04:39:03;;;;;;;3.90;1.90;;;;;;;;;;4983342;28;24410;-61
2021/12/01 04:41:30;;;;;;;3.20;2.10;;;;;;;;;;4990281;28;24487;-61
2021/12/01 04:43:59;;;;;;;4.00;2.42;;;;;;;;;;4984997;28;25331;-61
2021/12/01 04:46:24;;;;;;;3.38;2.20;;;;;;;;;;4998157;28;24539;-61
2021/12/01 04:48:49;;;;;;;3.87;2.30;;;;;;;;;;4989253;28;24569;-62
2021/12/01 04:51:17;;;;;;;2.20;1.90;;;;;;;;;;4984859;28;24514;-61
2021/12/01 04:53:42;;;;;;;3.95;2.00;;;;;;;;;;4988547;28;24428;-62
2021/12/01 04:56:07;;;;;;;4.80;2.30;;;;;;;;;;4981665;28;24988;-62
2021/12/01 04:58:33;;;;;;;2.40;2.20;;;;;;;;;;4987850;28;25268;-62
2021/12/01 05:00:58;;;;;;;3.00;2.55;;;;;;;;;;4999067;28;24420;-61
2021/12/01 05:03:23;;;;;;;2.87;2.27;;;;;;;;;;4988173;28;24421;-62
2021/12/01 05:05:48;;;;;;;5.70;2.60;;;;;;;;;;4984486;28;24409;-61
2021/12/01 05:08:13;;;;;;;2.70;2.20;;;;;;;;;;4995078;28;24413;-62
2021/12/01 05:10:39;;;;;;;4.33;2.40;;;;;;;;;;4983435;28;24415;-63
2021/12/01 05:13:04;;;;;;;2.77;2.30;;;;;;;;;;4984397;28;24965;-62
2021/12/01 05:15:29;;;;;;;5.70;2.53;;;;;;;;;;4987363;28;24575;-62
2021/12/01 05:17:54;;;;;;;2.60;2.40;;;;;;;;;;4981337;28;24416;-61
2021/12/01 05:20:19;;;;;;;3.50;2.90;;;;;;;;;;4982708;28;24411;-61
2021/12/01 05:22:44;;;;;;;3.77;2.87;;;;;;;;;;4980515;28;24483;-62
2021/12/01 05:25:10;;;;;;;3.90;2.70;;;;;;;;;;4984002;28;24464;-61
2021/12/01 05:27:36;;;;;;;3.92;2.88;;;;;;;;;;4981463;28;24424;-61
2021/12/01 05:30:01;;;;;;;4.67;2.63;;;;;;;;;;4984030;28;25030;-62
2021/12/01 05:32:26;;;;;;;3.10;2.80;;;;;;;;;;4982974;28;24422;-62
2021/12/01 05:34:52;;;;;;;5.10;3.30;;;;;;;;;;4992696;28;24882;-62
2021/12/01 05:37:17;;;;;;;3.50;3.10;;;;;;;;;;4999755;28;25054;-62
2021/12/01 05:39:45;;;;;;;3.10;2.83;;;;;;;;;;4982700;28;25023;-62
2021/12/01 05:42:10;;;;;;;3.92;3.40;;;;;;;;;;4984773;28;24431;-62
2021/12/01 05:44:36;;;;;;;3.63;3.30;;;;;;;;;;4977675;28;24424;-62
2021/12/01 05:47:01;;;;;;;3.30;3.00;;;;;;;;;;4991333;28;24416;-63
2021/12/01 05:49:26;;;;;;;4.90;3.10;;;;;;;;;;5002171;28;24482;-62
2021/12/01 05:51:52;;;;;;;3.30;3.00;;;;;;;;;;5000260;28;24724;-62
2021/12/01 05:54:17;;;;;;;3.27;2.97;;;;;;;;;;4993450;28;24820;-62
2021/12/01 05:56:42;;;;;;;3.55;3.00;;;;;;;;;;4992052;28;24627;-62
2021/12/01 05:59:07;;;;;;;4.10;3.20;;;;;;;;;;4986567;28;24504;-62
2021/12/01 06:01:32;;;;;;;3.95;3.40;;;;;;;;;;4989772;28;24408;-63
2021/12/01 06:03:58;;;;;;;4.27;3.53;;;;;;;;;;4985180;28;24418;-63
2021/12/01 06:06:23;;;;;;;3.22;2.92;;;;;;;;;;4987981;28;25026;-62
2021/12/01 06:08:48;;;;;;;4.30;3.38;;;;;;;;;;4985239;28;24445;-64
2021/12/01 06:11:13;;;;;;;3.65;2.80;;;;;;;;;;4989653;28;24424;-63
2021/12/01 06:13:40;;;;;;;4.67;3.00;;;;;;;;;;4986247;28;24794;-62
2021/12/01 06:16:06;;;;;;;3.58;2.83;;;;;;;;;;4995293;28;24838;-63
2021/12/01 06:18:31;;;;;;;3.70;2.80;;;;;;;;;;4988579;28;25023;-64
2021/12/01 06:20:57;;;;;;;2.37;2.17;;;;;;;;;;4987154;28;24424;-63
2021/12/01 06:23:22;;;;;;;4.20;2.50;;;;;;;;;;4978215;28;25002;-64
2021/12/01 06:25:47;;;;;;;2.40;2.20;;;;;;;;;;4983713;28;24467;-62
2021/12/01 06:28:13;;;;;;;2.60;2.10;;;;;;;;;;4983541;28;24508;-62
2021/12/01 06:30:38;;;;;;;2.47;2.27;;;;;;;;;;4984474;28;24998;-61
2021/12/01 06:33:03;;;;;;;2.65;2.45;;;;;;;;;;4983025;28;24986;-61
2021/12/01 06:35:29;;;;;;;2.60;2.40;;;;;;;;;;4981928;28;24429;-60
2021/12/01 06:37:55;;;;;;;5.68;3.60;;;;;;;;;;4979938;28;24505;-60
2021/12/01 06:40:21;;;;;;;3.40;3.10;;;;;;;;;;4989847;28;24413;-61
2021/12/01 06:42:47;;;;;;;2.70;2.50;;;;;;;;;;4981734;28;24451;-61
2021/12/01 06:45:12;;;;;;;3.22;2.92;;;;;;;;;;4982221;28;24425;-60
2021/12/01 06:47:38;;;;;;;2.60;2.40;;;;;;;;;;4981100;28;24518;-60
2021/12/01 06:50:05;;;;;;;2.63;2.43;;;;;;;;;;4988185;28;24409;-61
2021/12/01 06:52:30;;;;;;;2.80;2.60;;;;;;;;;;4977702;28;24448;-62
2021/12/01 06:54:56;;;;;;;2.95;2.65;;;;;;;;;;4981620;28;24896;-60
2021/12/01 06:57:21;;;;;;;2.13;1.83;;;;;;;;;;4992083;28;24981;-60
2021/12/01 06:59:46;;;;;;;2.50;2.30;;;;;;;;;;4979863;28;24512;-61
2021/12/01 07:02:11;;;;;;;2.77;2.57;;;;;;;;;;4986666;28;25061;-59
2021/12/01 07:04:37;;;;;;;2.47;2.27;;;;;;;;;;4980067;28;24772;-60
2021/12/01 07:07:02;;;;;;;2.57;2.37;;;;;;;;;;4983276;28;24567;-60
2021/12/01 07:09:27;;;;;;;2.30;2.10;;;;;;;;;;4984324;28;24983;-60
2021/12/01 07:11:52;;;;;;;2.70;2.50;;;;;;;;;;4983643;28;24775;-60
2021/12/01 07:14:18;;;;;;;2.60;2.20;;;;;;;;;;4979679;28;25242;-60
2021/12/01 07:16:43;;;;;;;2.83;2.30;;;;;;;;;;4989154;28;24594;-60
2021/12/01 07:19:08;;;;;;;2.87;2.57;;;;;;;;;;4981078;28;24512;-60
2021/12/01 07:21:35;;;;;;;3.10;2.60;;;;;;;;;;4990555;28;24760;-59
2021/12/01 07:24:01;;;;;;;2.60;2.30;;;;;;;;;;4984700;28;24392;-59
2021/12/01 07:26:27;;;;;;;3.90;3.40;;;;;;;;;;4985751;28;24433;-59
2021/12/01 07:28:52;;;;;;;4.20;3.70;;;;;;;;;;4980787;28;24400;-60
2021/12/01 07:31:17;;;;;;;3.93;3.53;;;;;;;;;;4979179;28;24503;-60
2021/12/01 07:33:42;;;;;;;2.00;1.90;;;;;;;;;;4982794;28;24497;-60
2021/12/01 07:36:08;;;;;;;1.90;1.80;;;;;;;;;;4984463;28;24409;-60
2021/12/01 07:38:33;;;;;;;1.70;1.60;;;;;;;;;;4982033;28;24471;-60
2021/12/01 07:40:58;;;;;;;2.40;1.80;;;;;;;;;;4979928;28;24482;-59
2021/12/01 07:43:23;;;;;;;2.60;2.40;;;;;;;;;;4976953;28;24532;-60
2021/12/01 07:45:49;;;;;;;3.92;3.10;;;;;;;;;;4979706;28;24415;-60
2021/12/01 07:48:14;;;;;;;2.77;2.40;;;;;;;;;;4983701;28;24939;-59
2021/12/01 07:50:40;;;;;;;1.83;1.73;;;;;;;;;;4982561;28;24497;-60
2021/12/01 07:53:05;;;;;;;1.83;1.67;;;;;;;;;;4978259;28;24395;-59
2021/12/01 07:55:30;;;;;;;1.98;1.60;;;;;;;;;;4980784;28;24459;-59
2021/12/01 07:57:55;;;;;;;1.42;1.33;;;;;;;;;;4987362;28;24413;-59
2021/12/01 08:00:20;;;;;;;2.13;1.15;;;;;;;;;;4990254;28;25009;-59
2021/12/01 08:02:45;;;;;;;1.60;1.50;;;;;;;;;;4979774;28;24496;-59
2021/12/01 08:05:11;;;;;;;1.30;1.20;;;;;;;;;;4982056;28;24839;-59
2021/12/01 08:07:38;;;;;;;1.27;1.20;;;;;;;;;;4988813;28;24417;-59
2021/12/01 08:10:05;;;;;;;1.80;1.45;;;;;;;;;;4986103;28;24413;-60
2021/12/01 08:12:32;;;;;;;1.40;1.30;;;;;;;;;;4991821;28;24416;-59
2021/12/01 08:14:57;;;;;;;1.80;1.35;;;;;;;;;;4986269;28;24428;-60
2021/12/01 08:17:22;;;;;;;1.40;1.30;;;;;;;;;;4983059;28;24463;-59
2021/12/01 08:19:47;;;;;;;1.00;1.00;;;;;;;;;;4978150;28;24416;-60
2021/12/01 08:22:13;;;;;;;1.90;1.70;;;;;;;;;;4984977;28;24955;-60
2021/12/01 08:24:38;;;;;;;1.90;1.70;;;;;;;;;;4981599;28;24531;-59
2021/12/01 08:27:03;;;;;;;1.50;1.40;;;;;;;;;;4984589;28;24783;-59
2021/12/01 08:29:28;;;;;;;2.80;2.00;;;;;;;;;;4986204;28;24428;-60
2021/12/01 08:31:53;;;;;;;1.90;1.80;;;;;;;;;;4977073;28;24432;-60
2021/12/01 08:34:19;;;;;;;2.05;1.85;;;;;;;;;;4979708;28;24859;-60
2021/12/01 08:36:46;;;;;;;2.33;1.90;;;;;;;;;;4981408;28;24432;-61
2021/12/01 08:39:11;;;;;;;2.10;1.80;;;;;;;;;;5001019;28;25101;-61
2021/12/01 08:41:37;;;;;;;1.80;1.70;;;;;;;;;;4991462;28;24429;-61
2021/12/01 08:44:02;;;;;;;2.50;1.95;;;;;;;;;;4979574;28;24524;-61
2021/12/01 08:46:27;;;;;;;1.90;1.80;;;;;;;;;;4984200;28;24452;-61
2021/12/01 08:48:52;;;;;;;2.60;2.20;;;;;;;;;;4984982;28;24966;-61
2021/12/01 08:51:18;;;;;;;2.77;2.57;;;;;;;;;;5002847;28;24812;-61
2021/12/01 08:53:43;;;;;;;3.80;3.10;;;;;;;;;;4979946;28;24421;-61
2021/12/01 08:56:09;;;;;;;3.40;2.90;;;;;;;;;;4976729;28;25015;-61
2021/12/01 08:58:35;;;;;;;3.47;3.17;;;;;;;;;;4978848;28;25186;-61
2021/12/01 09:01:00;;;;;;;3.97;3.50;;;;;;;;;;4979239;28;24440;-60
2021/12/01 09:03:25;;;;;;;4.57;4.03;;;;;;;;;;4984219;28;24417;-62
2021/12/01 09:05:52;;;;;;;3.20;2.90;;;;;;;;;;4978906;28;24413;-61
2021/12/01 09:08:19;;;;;;;2.80;2.60;;;;;;;;;;4985069;28;25004;-61
2021/12/01 09:10:44;;;;;;;3.00;2.78;;;;;;;;;;4989024;28;24528;-60
2021/12/01 09:13:11;;;;;;;3.88;3.13;;;;;;;;;;4978255;28;24523;-61
2021/12/01 09:15:36;;;;;;;2.67;2.20;;;;;;;;;;4977172;28;24437;-60
2021/12/01 09:18:01;;;;;;;2.27;2.03;;;;;;;;;;4987912;28;24840;-61
2021/12/01 09:20:27;;;;;;;1.45;1.35;;;;;;;;;;4988540;28;25042;-61
2021/12/01 09:22:52;;;;;;;3.10;2.80;;;;;;;;;;4995152;28;24471;-61
2021/12/01 09:25:17;;;;;;;3.10;2.40;;;;;;;;;;4986936;28;24432;-61
2021/12/01 09:27:44;;;;;;;1.80;1.70;;;;;;;;;;4980716;28;24520;-61
2021/12/01 09:30:10;;;;;;;2.38;1.55;;;;;;;;;;4992635;28;24800;-61
2021/12/01 09:32:37;;;;;;;1.50;1.40;;;;;;;;;;4986054;28;24429;-61
2021/12/01 09:35:03;;;;;;;1.60;1.50;;;;;;;;;;4983688;28;24433;-62
2021/12/01 09:37:28;;;;;;;1.60;1.38;;;;;;;;;;4983220;28;25460;-61
2021/12/01 09:39:53;;;;;;;1.50;1.40;;;;;;;;;;4991502;28;24404;-61
2021/12/01 09:42:19;;;;;;;1.40;1.30;;;;;;;;;;4991464;28;24461;-61
2021/12/01 09:44:44;;;;;;;2.00;1.60;;;;;;;;;;4987794;28;24467;-61
2021/12/01 09:47:09;;;;;;;1.52;1.00;;;;;;;;;;4992162;28;24962;-61
2021/12/01 09:49:35;;;;;;;2.13;1.83;;;;;;;;;;4982403;28;24440;-61
2021/12/01 09:52:00;;;;;;;2.10;1.70;;;;;;;;;;4983714;28;24990;-61
2021/12/01 09:54:25;;;;;;;1.63;1.50;;;;;;;;;;4984571;28;24443;-61
2021/12/01 09:56:50;;;;;;;1.70;1.20;;;;;;;;;;4987796;28;24428;-59
2021/12/01 09:59:15;;;;;;;0.90;0.90;;;;;;;;;;4980139;28;24927;-61
2021/12/01 10:01:41;;;;;;;1.20;0.90;;;;;;;;;;4982941;28;24496;-60
2021/12/01 10:04:06;;;;;;;1.00;1.00;;;;;;;;;;4986452;28;24467;-60
2021/12/01 10:06:32;;;;;;;1.30;1.20;;;;;;;;;;4985645;28;24463;-60
2021/12/01 10:09:03;;;;;;;1.10;1.00;;;;;;;;;;4984077;28;24420;-61
2021/12/01 10:11:28;;;;;;;2.00;1.40;;;;;;;;;;4984333;28;24420;-61
2021/12/01 10:13:58;;;;;;;1.80;1.70;;;;;;;;;;4979318;28;24421;-61
2021/12/01 10:16:25;;;;;;;2.22;2.00;;;;;;;;;;4981983;28;24849;-61
2021/12/01 10:18:57;;;;;;;2.25;2.10;;;;;;;;;;4982005;28;24417;-61
2021/12/01 10:21:28;;;;;;;1.60;1.50;;;;;;;;;;4982867;28;24417;-61
2021/12/01 10:23:58;;;;;;;2.20;1.50;;;;;;;;;;4979624;28;25024;-61
2021/12/01 10:26:25;;;;;;;1.50;1.40;;;;;;;;;;4976176;28;24416;-61
2021/12/01 10:29:00;;;;;;;1.42;1.33;;;;;;;;;;4981513;28;24495;-61
2021/12/01 10:31:35;;;;;;;1.30;1.20;;;;;;;;;;4985767;28;24955;-61
2021/12/01 10:34:13;;;;;;;0.90;0.90;;;;;;;;;;4983269;28;24596;-61
2021/12/01 10:36:38;;;;;;;0.82;0.82;;;;;;;;;;4983118;28;25015;-61
2021/12/01 10:39:05;;;;;;;0.80;0.80;;;;;;;;;;4987616;28;24425;-61
2021/12/01 10:41:34;;;;;;;0.80;0.70;;;;;;;;;;4971708;28;24432;-61
2021/12/01 10:44:06;;;;;;;0.82;0.80;;;;;;;;;;4982780;28;24719;-60
2021/12/01 10:46:41;;;;;;;0.70;0.70;;;;;;;;;;4990460;28;24875;-61
2021/12/01 10:49:07;;;;;;;0.70;0.70;;;;;;;;;;4982825;28;24509;-61
2021/12/01 10:51:33;;;;;;;0.60;0.60;;;;;;;;;;4981290;28;24527;-61
2021/12/01 10:53:59;;;;;;;1.20;0.70;;;;;;;;;;4979639;28;24432;-60
2021/12/01 10:56:24;;;;;;;0.60;0.60;;;;;;;;;;4984255;28;24444;-60
2021/12/01 10:58:49;;;;;;;0.90;0.70;;;;;;;;;;4982942;28;24507;-59
2021/12/01 11:01:19;;;;;;;0.70;0.70;;;;;;;;;;4985067;28;24463;-63
2021/12/01 11:03:45;;;;;;;0.70;0.70;;;;;;;;;;4977707;28;24420;-60
2021/12/01 11:06:12;;;;;;;0.80;0.70;;;;;;;;;;4982074;28;24421;-60
2021/12/01 11:08:39;;;;;;;0.80;0.70;;;;;;;;;;4982077;28;24464;-62
2021/12/01 11:11:09;;;;;;;0.60;0.60;;;;;;;;;;4986753;28;24452;-62
2021/12/01 11:13:35;;;;;;;0.90;0.70;;;;;;;;;;4982900;28;24496;-62
2021/12/01 11:16:01;;;;;;;0.80;0.70;;;;;;;;;;4988580;28;24464;-62
2021/12/01 11:18:28;;;;;;;0.70;0.70;;;;;;;;;;5001158;28;24392;-60
2021/12/01 11:20:55;;;;;;;0.85;0.80;;;;;;;;;;4982442;28;24425;-60
2021/12/01 11:23:22;;;;;;;1.05;0.80;;;;;;;;;;4985682;28;24405;-60
2021/12/01 11:25:50;;;;;;;0.80;0.80;;;;;;;;;;4985671;28;24455;-60
2021/12/01 11:28:16;;;;;;;0.70;0.70;;;;;;;;;;4979630;28;24444;-60
2021/12/01 11:30:43;;;;;;;1.10;0.90;;;;;;;;;;4979012;28;24519;-60
2021/12/01 11:33:13;;;;;;;1.10;1.00;;;;;;;;;;4981754;28;24417;-60
2021/12/01 11:35:39;;;;;;;0.80;0.80;;;;;;;;;;4981085;28;24427;-60
2021/12/01 11:38:05;;;;;;;0.97;0.97;;;;;;;;;;4997585;28;25506;-60
2021/12/01 11:40:30;;;;;;;1.20;1.10;;;;;;;;;;4980853;28;24413;-62
2021/12/01 11:42:56;;;;;;;1.20;1.10;;;;;;;;;;4976921;28;24784;-60
2021/12/01 11:45:21;;;;;;;1.00;1.00;;;;;;;;;;4979717;28;24436;-60
2021/12/01 11:47:47;;;;;;;1.93;1.00;;;;;;;;;;4981309;28;24524;-60
2021/12/01 11:50:20;;;;;;;1.20;1.00;;;;;;;;;;4982645;28;25034;-60
2021/12/01 11:53:03;;;;;;;87.30;77.78;;;;;;;;;;4976816;28;24480;-59
2021/12/01 11:55:47;;;;;;;19.30;17.23;;;;;;;;;;4978237;28;24491;-61
2021/12/01 11:58:32;;;;;;;15.07;13.52;;;;;;;;;;4983654;28;24989;-59
2021/12/01 12:00:58;;;;;;;15.23;13.67;;;;;;;;;;4980248;28;24627;-59
2021/12/01 12:03:24;;;;;;;12.20;10.93;;;;;;;;;;4980040;28;25093;-59
2021/12/01 12:06:08;;;;;;;7.13;6.40;;;;;;;;;;4977474;28;24432;-59
2021/12/01 12:08:52;;;;;;;11.90;10.63;;;;;;;;;;4981337;28;24859;-59
2021/12/01 12:11:32;;;;;;;2.20;2.00;;;;;;;;;;4986999;28;24420;-60
2021/12/01 12:13:58;;;;;;;1.52;0.90;;;;;;;;;;4997704;28;24417;-60
2021/12/01 12:16:23;;;;;;;0.70;0.70;;;;;;;;;;4981275;28;25025;-61
2021/12/01 12:18:49;;;;;;;0.98;0.98;;;;;;;;;;4984925;28;24425;-60
2021/12/01 12:21:20;;;;;;;0.90;0.90;;;;;;;;;;4988005;28;24756;-60
2021/12/01 12:23:46;;;;;;;0.85;0.85;;;;;;;;;;4980629;28;25232;-60
2021/12/01 12:26:11;;;;;;;0.70;0.70;;;;;;;;;;4979910;28;24519;-60
2021/12/01 12:28:37;;;;;;;1.00;0.90;;;;;;;;;;4980400;28;24389;-60
2021/12/01 12:31:04;;;;;;;0.80;0.80;;;;;;;;;;4984825;28;24421;-60
2021/12/01 12:33:31;;;;;;;1.10;0.90;;;;;;;;;;4982933;28;24482;-61
2021/12/01 12:36:07;;;;;;;1.40;1.02;;;;;;;;;;4979465;28;24788;-60
2021/12/01 12:38:32;;;;;;;1.00;0.90;;;;;;;;;;4979974;28;24748;-60
2021/12/01 12:41:02;;;;;;;0.70;0.70;;;;;;;;;;4982678;28;24421;-61
2021/12/01 12:43:29;;;;;;;0.90;0.90;;;;;;;;;;4982653;28;24533;-61
2021/12/01 12:46:02;;;;;;;0.80;0.80;;;;;;;;;;4980029;28;24472;-60
2021/12/01 12:48:29;;;;;;;0.90;0.90;;;;;;;;;;4977599;28;24436;-60
2021/12/01 12:51:11;;;;;;;1.05;0.95;;;;;;;;;;4976970;28;24409;-60
2021/12/01 12:53:55;;;;;;;0.90;0.90;;;;;;;;;;4981741;28;24551;-60
2021/12/01 12:56:27;;;;;;;0.80;0.80;;;;;;;;;;4987464;28;24447;-61
2021/12/01 12:58:52;;;;;;;1.10;1.00;;;;;;;;;;4988726;28;24420;-60
2021/12/01 13:01:25;;;;;;;1.30;0.80;;;;;;;;;;4999487;28;24400;-60
2021/12/01 13:03:51;;;;;;;0.80;0.70;;;;;;;;;;4987176;28;24464;-60
2021/12/01 13:06:26;;;;;;;1.20;0.80;;;;;;;;;;4987492;28;24985;-61
2021/12/01 13:08:52;;;;;;;0.60;0.60;;;;;;;;;;4994070;28;24424;-59
2021/12/01 13:11:20;;;;;;;0.70;0.70;;;;;;;;;;4983496;28;24420;-62
2021/12/01 13:14:03;;;;;;;0.97;0.97;;;;;;;;;;4981772;28;25049;-62
2021/12/01 13:16:29;;;;;;;0.90;0.80;;;;;;;;;;4984816;28;24432;-62
2021/12/01 13:18:55;;;;;;;0.88;0.75;;;;;;;;;;4990984;28;24947;-60
2021/12/01 13:21:21;;;;;;;0.70;0.70;;;;;;;;;;4987362;28;24950;-60
2021/12/01 13:23:51;;;;;;;1.10;0.70;;;;;;;;;;4984607;28;24421;-62
2021/12/01 13:26:18;;;;;;;0.70;0.70;;;;;;;;;;4983182;28;24409;-62
2021/12/01 13:28:54;;;;;;;1.20;1.10;;;;;;;;;;4983512;28;24911;-62
2021/12/01 13:31:24;;;;;;;1.15;0.90;;;;;;;;;;4986495;28;24904;-62
2021/12/01 13:33:58;;;;;;;1.23;0.95;;;;;;;;;;4982651;28;25037;-60
2021/12/01 13:36:24;;;;;;;0.70;0.70;;;;;;;;;;4983435;28;24420;-60
2021/12/01 13:39:02;;;;;;;0.80;0.70;;;;;;;;;;4973635;28;24445;-60
2021/12/01 13:41:29;;;;;;;0.77;0.77;;;;;;;;;;5006784;28;24479;-61
2021/12/01 13:44:13;;;;;;;0.70;0.70;;;;;;;;;;4990622;28;24436;-61
2021/12/01 13:46:39;;;;;;;1.10;0.75;;;;;;;;;;4978124;28;24428;-61
2021/12/01 13:49:04;;;;;;;0.60;0.60;;;;;;;;;;4980934;28;24413;-62
2021/12/01 13:51:33;;;;;;;0.85;0.70;;;;;;;;;;4983401;28;24405;-62
2021/12/01 13:53:58;;;;;;;0.90;0.70;;;;;;;;;;4996168;28;24432;-62
2021/12/01 13:56:28;;;;;;;0.60;0.50;;;;;;;;;;4998742;28;24499;-62
2021/12/01 13:59:00;;;;;;;0.80;0.80;;;;;;;;;;4992967;28;24482;-62
2021/12/01 14:01:26;;;;;;;0.87;0.70;;;;;;;;;;4989166;28;25128;-57
2021/12/01 14:03:59;;;;;;;3.92;3.63;;;;;;;;;;4986625;28;24511;-59
2021/12/01 14:06:32;;;;;;;6.10;5.32;;;;;;;;;;4985807;28;24553;-59
2021/12/01 14:09:17;;;;;;;4.80;3.95;;;;;;;;;;4992231;28;24471;-62
2021/12/01 14:11:42;;;;;;;0.93;0.90;;;;;;;;;;4966227;28;24547;-62
2021/12/01 14:14:16;;;;;;;1.20;1.10;;;;;;;;;;4973728;28;24524;-61
2021/12/01 14:16:45;;;;;;;0.80;0.80;;;;;;;;;;4982870;28;24409;-61
2021/12/01 14:19:11;;;;;;;1.30;0.70;;;;;;;;;;4994430;28;24419;-61
2021/12/01 14:21:36;;;;;;;0.68;0.68;;;;;;;;;;5006009;28;24659;-61
2021/12/01 14:24:10;;;;;;;0.80;0.80;;;;;;;;;;4988513;28;24623;-61
2021/12/01 14:26:36;;;;;;;0.70;0.70;;;;;;;;;;4976091;28;24799;-61
2021/12/01 14:29:03;;;;;;;0.80;0.80;;;;;;;;;;4983834;28;24425;-61
2021/12/01 14:31:29;;;;;;;1.33;1.20;;;;;;;;;;4983896;28;24421;-61
2021/12/01 14:34:01;;;;;;;0.80;0.70;;;;;;;;;;4983997;28;24416;-61
2021/12/01 14:36:27;;;;;;;0.85;0.85;;;;;;;;;;4980338;28;24440;-61
2021/12/01 14:38:52;;;;;;;0.80;0.80;;;;;;;;;;4987465;28;24425;-61
2021/12/01 14:41:17;;;;;;;0.70;0.70;;;;;;;;;;4988140;28;24417;-61
2021/12/01 14:43:42;;;;;;;0.80;0.80;;;;;;;;;;4985947;28;24405;-61
2021/12/01 14:46:13;;;;;;;0.80;0.80;;;;;;;;;;4983961;28;24400;-61
2021/12/01 14:48:38;;;;;;;0.70;0.70;;;;;;;;;;4985687;28;24459;-61